Login to view products.  
Wednesday, December 13, 2017 (12:53 UTC)
Sharjah International Airport
ICAO Code: OMSJ
IATA Code: SHJ
  • METAR OMSJ 131230Z 36011KT CAVOK 24/09 Q1016=
  • TAF OMSJ 131056Z 1312/1418 36014KT 8000 FEW035 BECMG 1313/1315 08008KT BECMG 1410/1412 34013KT BECMG 1413/1415 10008KT=